Time;durP1;ratioP1;P1;durP2;ratioP2;P2;SDS_P1;SDS_P2;PMS_P1;PMS_P2;Temp;Humidity;BMP_temperature;BMP_pressure;BME280_temperature;BME280_humidity;BME280_pressure;Samples;Min_cycle;Max_cycle;Signal;HPM_P1;HPM_P2
2021/04/19 00:00:20;;;;;;;1999.90;999.90;;;;;;;11.54;100.00;-18216.31;4960083;29;20269;-35
2021/04/19 00:03:08;;;;;;;1999.90;999.90;;;;;;;11.36;100.00;-17443.13;4960325;28;20307;-35
2021/04/19 00:05:55;;;;;;;1999.90;999.90;;;;;;;10.83;100.00;-8757.50;4959338;29;20216;-35
2021/04/19 00:08:41;;;;;;;1999.90;999.90;;;;;;;11.09;100.00;4334.56;4960248;29;20211;-34
2021/04/19 00:11:27;;;;;;;1999.90;999.90;;;;;;;10.99;100.00;2658.84;4959940;29;20647;-32
2021/04/19 00:14:15;;;;;;;1999.90;999.90;;;;;;;10.91;100.00;4686.41;4959561;29;20203;-33
2021/04/19 00:17:02;;;;;;;1999.90;999.90;;;;;;;10.78;100.00;9992.88;4959898;29;20355;-34
2021/04/19 00:19:48;;;;;;;1999.90;999.90;;;;;;;11.12;100.00;11794.38;4959995;29;20203;-32
2021/04/19 00:22:35;;;;;;;1999.90;999.90;;;;;;;11.29;100.00;7292.78;4959735;29;20207;-34
2021/04/19 00:25:21;;;;;;;1999.90;999.90;;;;;;;10.96;100.00;6729.00;4959577;29;20207;-35
2021/04/19 00:28:09;;;;;;;1999.90;999.90;;;;;;;10.54;100.00;17514.94;4959718;29;20247;-35
2021/04/19 00:30:56;;;;;;;1999.90;999.90;;;;;;;10.50;100.00;33225.09;4958852;29;20307;-35
2021/04/19 00:33:44;;;;;;;1999.90;999.90;;;;;;;10.31;100.00;38073.47;4959740;29;20296;-33
2021/04/19 00:36:32;;;;;;;1999.90;999.90;;;;;;;10.37;100.00;51974.28;4959510;29;20200;-33
2021/04/19 00:39:19;;;;;;;1999.90;999.90;;;;;;;10.30;100.00;49827.81;4959955;29;20483;-36
2021/04/19 00:42:09;;;;;;;1999.90;999.90;;;;;;;10.56;100.00;53243.88;4959590;29;20485;-31
2021/04/19 00:44:55;;;;;;;1999.90;999.90;;;;;;;10.40;100.00;53546.06;4959369;29;20268;-31
2021/04/19 00:47:44;;;;;;;1999.90;999.90;;;;;;;10.36;100.00;58780.25;4959669;29;20218;-33
2021/04/19 00:50:33;;;;;;;1999.90;999.90;;;;;;;10.30;100.00;66550.84;4959380;29;20331;-35
2021/04/19 00:53:19;;;;;;;1999.90;999.90;;;;;;;10.26;100.00;70486.22;4959313;29;20208;-36
2021/04/19 00:56:10;;;;;;;1999.90;999.90;;;;;;;10.38;100.00;74444.81;4959254;29;20599;-33
2021/04/19 00:58:56;;;;;;;1999.90;999.90;;;;;;;10.28;100.00;72788.84;4958732;29;20248;-30
2021/04/19 01:01:42;;;;;;;1999.90;999.90;;;;;;;10.52;100.00;73805.47;4959158;29;20259;-32
2021/04/19 01:04:28;;;;;;;1999.90;999.90;;;;;;;10.84;100.00;70884.13;4959023;29;20291;-31
2021/04/19 01:07:14;;;;;;;1999.90;999.90;;;;;;;10.62;100.00;57629.03;4958912;29;20203;-35
2021/04/19 01:10:00;;;;;;;1999.90;999.90;;;;;;;10.74;100.00;56532.13;4958332;29;20228;-31
2021/04/19 01:12:46;;;;;;;1999.90;999.90;;;;;;;10.91;100.00;54667.00;4958846;29;20205;-33
2021/04/19 01:15:33;;;;;;;1999.90;999.90;;;;;;;10.82;100.00;40242.47;4958317;28;20634;-35
2021/04/19 01:18:19;;;;;;;1999.90;999.90;;;;;;;10.71;100.00;39263.81;4958793;29;20666;-33
2021/04/19 01:21:07;;;;;;;1999.90;999.90;;;;;;;10.98;100.00;36677.59;4958866;29;20203;-33
2021/04/19 01:23:52;;;;;;;1999.90;999.90;;;;;;;11.25;100.00;28125.47;4958872;29;20208;-32
2021/04/19 01:26:39;;;;;;;1999.90;999.90;;;;;;;10.93;100.00;29528.28;4957219;29;20590;-32
2021/04/19 01:29:25;;;;;;;1999.90;999.90;;;;;;;10.75;100.00;28596.22;4958786;29;20681;-35
2021/04/19 01:32:11;;;;;;;1999.90;999.90;;;;;;;10.99;100.00;34788.38;4958957;29;20195;-31
2021/04/19 01:34:57;;;;;;;1999.90;999.90;;;;;;;10.73;100.00;34151.47;4958802;29;20199;-33
2021/04/19 01:37:45;;;;;;;1999.90;999.90;;;;;;;10.38;100.00;38240.75;4958572;29;20199;-31
2021/04/19 01:40:33;;;;;;;1999.90;999.90;;;;;;;10.49;100.00;49742.06;4958370;29;20204;-34
2021/04/19 01:43:19;;;;;;;1999.90;999.90;;;;;;;10.42;100.00;52883.38;4958441;29;20311;-30
2021/04/19 01:46:06;;;;;;;1999.90;999.90;;;;;;;10.37;100.00;56537.41;4958014;29;20366;-33
2021/04/19 01:48:52;;;;;;;1999.90;999.90;;;;;;;10.40;100.00;60986.00;4958209;29;20203;-32
2021/04/19 01:51:38;;;;;;;1999.90;999.90;;;;;;;10.44;100.00;57977.06;4958395;29;20232;-31
2021/04/19 01:54:25;;;;;;;1999.90;999.90;;;;;;;10.30;100.00;56863.06;4958250;29;20507;-31
2021/04/19 01:57:11;;;;;;;1999.90;999.90;;;;;;;10.16;100.00;62535.88;4958147;29;20242;-30
2021/04/19 01:59:58;;;;;;;1999.90;999.90;;;;;;;10.34;100.00;67540.19;4958131;29;20203;-35
2021/04/19 02:02:51;;;;;;;1999.90;999.90;;;;;;;10.39;100.00;69844.31;4958307;29;20644;-31
2021/04/19 02:05:47;;;;;;;1999.90;999.90;;;;;;;10.16;100.00;68503.94;4958457;29;20355;-31
2021/04/19 02:08:44;;;;;;;1999.90;999.90;;;;;;;10.15;100.00;70144.47;4958147;29;20606;-32
2021/04/19 02:11:52;;;;;;;1999.90;999.90;;;;;;;10.11;100.00;71125.50;4958378;29;20256;-31
2021/04/19 02:14:49;;;;;;;1999.90;999.90;;;;;;;10.08;100.00;70793.41;4958034;29;20203;-33
2021/04/19 02:17:44;;;;;;;1999.90;999.90;;;;;;;10.18;100.00;70804.97;4958303;29;20208;-32
2021/04/19 02:20:39;;;;;;;1999.90;999.90;;;;;;;10.10;100.00;70138.44;4958052;29;20199;-33
2021/04/19 02:23:29;;;;;;;1999.90;999.90;;;;;;;10.05;100.00;68162.78;4958389;29;20199;-31
2021/04/19 02:26:19;;;;;;;1999.90;999.90;;;;;;;9.93;100.00;66181.03;4958076;28;20211;-31
2021/04/19 02:29:10;;;;;;;1999.90;999.90;;;;;;;9.99;100.00;67172.00;4961590;29;20208;-33
2021/04/19 02:32:02;;;;;;;1999.90;999.90;;;;;;;10.07;100.00;67837.53;4962006;29;20238;-34
2021/04/19 02:34:52;;;;;;;1999.90;999.90;;;;;;;10.07;100.00;66853.13;4961601;29;20223;-32
2021/04/19 02:37:39;;;;;;;1999.90;999.90;;;;;;;9.88;100.00;63552.72;4962221;29;20319;-31
2021/04/19 02:40:26;;;;;;;1999.90;999.90;;;;;;;9.94;100.00;65854.78;4962182;29;20590;-34
2021/04/19 02:43:13;;;;;;;1999.90;999.90;;;;;;;10.11;100.00;66857.16;4961768;29;20204;-33
2021/04/19 02:46:01;;;;;;;1999.90;999.90;;;;;;;9.98;100.00;67171.41;4961552;29;20623;-33
2021/04/19 02:48:48;;;;;;;1999.90;999.90;;;;;;;9.96;100.00;67496.59;4961772;29;20227;-34
2021/04/19 02:51:42;;;;;;;1999.90;999.90;;;;;;;9.93;100.00;68478.03;4961480;29;20640;-32
2021/04/19 02:54:33;;;;;;;1999.90;999.90;;;;;;;10.06;100.00;69805.84;4962144;29;20204;-35
2021/04/19 02:57:27;;;;;;;1999.90;999.90;;;;;;;9.88;100.00;67159.84;4962446;29;20259;-34
2021/04/19 03:00:14;;;;;;;1999.90;999.90;;;;;;;9.82;100.00;65841.16;4962385;29;20208;-33
2021/04/19 03:03:05;;;;;;;1999.90;999.90;;;;;;;9.96;100.00;67169.09;4961388;29;20367;-32
2021/04/19 03:05:54;;;;;;;1999.90;999.90;;;;;;;10.00;100.00;65861.00;4961485;29;20208;-34
2021/04/19 03:08:48;;;;;;;1999.90;999.90;;;;;;;9.94;100.00;64870.53;4960946;29;20204;-31
2021/04/19 03:11:41;;;;;;;1999.90;999.90;;;;;;;9.85;100.00;63222.28;4961024;29;20356;-30
2021/04/19 03:14:31;;;;;;;1999.90;999.90;;;;;;;9.79;100.00;64198.81;4961003;29;20208;-33
2021/04/19 03:17:20;;;;;;;1999.90;999.90;;;;;;;9.94;100.00;67822.94;4960937;29;20260;-31
2021/04/19 03:20:14;;;;;;;1999.90;999.90;;;;;;;10.13;100.00;68172.16;4961001;29;20339;-33
2021/04/19 03:23:00;;;;;;;1999.90;999.90;;;;;;;10.66;100.00;56512.00;4960532;29;20296;-32
2021/04/19 03:25:46;;;;;;;1999.90;999.90;;;;;;;10.47;100.00;35774.97;4960257;29;20219;-34
2021/04/19 03:28:35;;;;;;;1999.90;999.90;;;;;;;10.52;100.00;33335.34;4961081;29;20299;-32
2021/04/19 03:31:25;;;;;;;1999.90;999.90;;;;;;;10.34;100.00;25666.31;4961129;29;20244;-34
2021/04/19 03:34:13;;;;;;;1999.90;999.90;;;;;;;10.31;100.00;30675.09;4960756;29;20554;-31
2021/04/19 03:37:03;;;;;;;1999.90;999.90;;;;;;;10.51;100.00;33111.22;4961089;29;20207;-32
2021/04/19 03:39:55;;;;;;;1999.90;999.90;;;;;;;10.48;100.00;32717.56;4960014;28;20336;-36
2021/04/19 03:42:43;;;;;;;1999.90;999.90;;;;;;;9.96;100.00;36216.50;4960293;29;20220;-36
2021/04/19 03:45:33;;;;;;;1999.90;999.90;;;;;;;10.32;100.00;40661.09;4960363;29;20228;-32
2021/04/19 03:48:22;;;;;;;1999.90;999.90;;;;;;;10.05;100.00;42323.13;4960946;29;20351;-34
2021/04/19 03:51:12;;;;;;;1999.90;999.90;;;;;;;9.89;100.00;48736.63;4960596;29;20383;-32
2021/04/19 03:54:01;;;;;;;1999.90;999.90;;;;;;;9.88;100.00;54944.09;4960132;29;20625;-31
2021/04/19 03:56:51;;;;;;;1999.90;999.90;;;;;;;9.71;100.00;55908.78;4959737;29;20204;-34
2021/04/19 03:59:39;;;;;;;1999.90;999.90;;;;;;;9.79;100.00;61904.88;4960519;29;20348;-32
2021/04/19 04:02:26;;;;;;;1999.90;999.90;;;;;;;9.74;100.00;63865.59;4960112;29;20369;-31
2021/04/19 04:05:14;;;;;;;1999.90;999.90;;;;;;;9.78;100.00;65836.66;4959614;29;20247;-34
2021/04/19 04:08:01;;;;;;;1999.90;999.90;;;;;;;9.64;100.00;64510.44;4959759;29;20263;-33
2021/04/19 04:10:49;;;;;;;1999.90;999.90;;;;;;;9.72;100.00;67469.28;4960358;29;20224;-32
2021/04/19 04:13:35;;;;;;;1999.90;999.90;;;;;;;9.88;100.00;68144.00;4960068;29;20211;-34
2021/04/19 04:16:20;;;;;;;1999.90;999.90;;;;;;;10.25;100.00;66545.69;4960108;29;20202;-33
2021/04/19 04:19:07;;;;;;;1999.90;999.90;;;;;;;10.37;100.00;51381.59;4959943;29;20204;-31
2021/04/19 04:21:53;;;;;;;1999.90;999.90;;;;;;;10.35;100.00;36157.06;4959846;29;20208;-33
2021/04/19 04:24:42;;;;;;;1999.90;999.90;;;;;;;10.20;100.00;33220.50;4959661;29;20295;-33
2021/04/19 04:27:29;;;;;;;1999.90;999.90;;;;;;;10.42;100.00;25446.41;4959796;29;20212;-31
2021/04/19 04:30:16;;;;;;;1999.90;999.90;;;;;;;10.07;100.00;18664.44;4959915;29;20208;-34
2021/04/19 04:33:05;;;;;;;1999.90;999.90;;;;;;;10.15;100.00;28030.31;4959659;29;20471;-31
2021/04/19 04:35:51;;;;;;;1999.90;999.90;;;;;;;10.20;100.00;27022.78;4960005;29;20211;-34
2021/04/19 04:38:38;;;;;;;1999.90;999.90;;;;;;;10.11;100.00;24712.38;4959459;29;20371;-33
2021/04/19 04:41:26;;;;;;;1999.90;999.90;;;;;;;10.13;100.00;20482.38;4959365;29;20203;-32
2021/04/19 04:44:18;;;;;;;1999.90;999.90;;;;;;;10.45;100.00;19467.88;4959201;29;20353;-31
2021/04/19 04:47:12;;;;;;;1999.90;999.90;;;;;;;10.12;100.00;14307.88;4959198;29;20204;-31
2021/04/19 04:50:07;;;;;;;1999.90;999.90;;;;;;;10.10;100.00;16840.03;4958254;28;20208;-33
2021/04/19 04:52:58;;;;;;;1999.90;999.90;;;;;;;10.27;100.00;19182.97;4959089;29;20626;-32
2021/04/19 04:55:46;;;;;;;1999.90;999.90;;;;;;;10.24;100.00;17226.69;4958388;29;20599;-32
2021/04/19 04:58:35;;;;;;;1999.90;999.90;;;;;;;10.18;100.00;17288.06;4957365;29;20248;-34
2021/04/19 05:01:26;;;;;;;1999.90;999.90;;;;;;;9.94;100.00;23455.06;4957815;29;20200;-34
2021/04/19 05:04:12;;;;;;;1999.90;999.90;;;;;;;10.14;100.00;23075.41;4958380;29;20204;-32
2021/04/19 05:06:58;;;;;;;1999.90;999.90;;;;;;;9.94;100.00;22218.56;4958234;29;20298;-34
2021/04/19 05:09:48;;;;;;;1999.90;999.90;;;;;;;10.42;100.00;23726.09;4957584;29;20467;-33
2021/04/19 05:12:39;;;;;;;1999.90;999.90;;;;;;;10.37;100.00;20146.69;4958675;29;20259;-33
2021/04/19 05:15:45;;;;;;;1999.90;999.90;;;;;;;10.37;100.00;19579.06;4958865;29;20208;-33
2021/04/19 05:18:35;;;;;;;1999.90;999.90;;;;;;;10.18;100.00;13558.41;4958456;29;20216;-32
2021/04/19 05:21:23;;;;;;;1999.90;999.90;;;;;;;9.79;100.00;16170.28;4958363;29;20505;-33
2021/04/19 05:24:14;;;;;;;1999.90;999.90;;;;;;;9.84;100.00;27794.34;4957619;29;20207;-37
2021/04/19 05:27:02;;;;;;;1999.90;999.90;;;;;;;9.94;100.00;31960.69;4956670;29;20208;-33
2021/04/19 05:29:49;;;;;;;1999.90;999.90;;;;;;;9.92;100.00;34233.59;4957732;29;20219;-32
2021/04/19 05:32:35;;;;;;;1999.90;999.90;;;;;;;9.79;100.00;32472.56;4957225;29;20231;-32
2021/04/19 05:35:22;;;;;;;1999.90;999.90;;;;;;;10.11;100.00;37830.75;4957575;29;20200;-31
2021/04/19 05:38:11;;;;;;;1999.90;999.90;;;;;;;10.47;100.00;38035.44;4957802;29;20204;-33
2021/04/19 05:40:58;;;;;;;1999.90;999.90;;;;;;;10.66;100.00;20466.69;4957443;29;20260;-32
2021/04/19 05:43:45;;;;;;;1999.90;999.90;;;;;;;10.64;100.00;15119.50;4957925;29;20204;-31
2021/04/19 05:46:31;;;;;;;1999.90;999.90;;;;;;;10.85;100.00;12924.78;4957470;29;20195;-31
2021/04/19 05:49:17;;;;;;;1999.90;999.90;;;;;;;11.98;100.00;-12395.06;4957666;29;20603;-34
2021/04/19 05:52:06;;;;;;;1999.90;999.90;;;;;;;12.57;100.00;-18243.41;4957409;29;20248;-36
2021/04/19 05:54:52;;;;;;;1999.90;999.90;;;;;;;11.63;100.00;-18218.56;4957811;29;20363;-34
2021/04/19 05:57:46;;;;;;;1999.90;999.90;;;;;;;10.83;100.00;-18197.47;4957626;29;20291;-34
2021/04/19 06:00:36;;;;;;;1999.90;999.90;;;;;;;12.16;100.00;-18232.47;4957516;29;20209;-31
2021/04/19 06:03:26;;;;;;;1999.90;999.90;;;;;;;12.19;100.00;-18233.28;4957427;28;20905;-33
2021/04/19 06:06:17;;;;;;;1999.90;999.90;;;;;;;10.84;100.00;-18197.72;4957475;29;20206;-32
2021/04/19 06:09:12;;;;;;;1999.90;999.90;;;;;;;11.33;100.00;-11787.56;4957137;29;20206;-36
2021/04/19 06:12:01;;;;;;;1999.90;999.90;;;;;;;10.69;100.00;-11556.06;4958159;29;20244;-32
2021/04/19 06:14:51;;;;;;;1999.90;999.90;;;;;;;10.56;100.00;-7833.53;4958492;29;20207;-33
2021/04/19 06:17:39;;;;;;;1999.90;999.90;;;;;;;11.17;100.00;-10053.09;4957678;29;20210;-31
2021/04/19 06:20:26;;;;;;;1999.90;999.90;;;;;;;10.69;100.00;-16471.91;4957927;29;20202;-31
2021/04/19 06:23:12;;;;;;;1999.90;999.90;;;;;;;10.17;100.00;-9331.06;4957747;29;20292;-33
2021/04/19 06:25:59;;;;;;;1999.90;999.90;;;;;;;10.78;100.00;1531.47;4957833;29;20207;-33
2021/04/19 06:28:49;;;;;;;1999.90;999.90;;;;;;;10.72;100.00;-1642.22;4957346;29;20283;-30
2021/04/19 06:31:47;;;;;;;1999.90;999.90;;;;;;;11.31;100.00;-7283.72;4956887;29;20233;-32
2021/04/19 06:34:33;;;;;;;1999.90;999.90;;;;;;;11.47;100.00;-10963.75;4956866;29;20494;-32
2021/04/19 06:37:20;;;;;;;1999.90;999.90;;;;;;;10.96;100.00;-13165.13;4956917;29;20309;-32
2021/04/19 06:40:12;;;;;;;1999.90;999.90;;;;;;;11.40;100.00;-16566.69;4952723;29;20307;-33
2021/04/19 06:43:02;;;;;;;1999.90;999.90;;;;;;;11.96;100.00;-18227.25;4950196;29;20207;-36
2021/04/19 06:45:48;;;;;;;1999.90;999.90;;;;;;;11.56;100.00;-18216.84;4948427;29;20212;-33
2021/04/19 06:48:34;;;;;;;1999.90;999.90;;;;;;;11.09;100.00;-18204.41;4938160;29;20201;-35
2021/04/19 06:51:28;;;;;;;1999.90;999.90;;;;;;;11.17;100.00;-18206.56;4937079;29;20645;-33
2021/04/19 06:54:14;;;;;;;1999.90;999.90;;;;;;;12.28;100.00;-18235.66;4937968;29;20220;-31
2021/04/19 06:57:00;;;;;;;1999.90;999.90;;;;;;;12.96;100.00;-18253.69;4937444;29;20671;-33
2021/04/19 06:59:52;;;;;;;1999.90;999.90;;;;;;;10.86;100.00;-18198.41;4937281;29;20208;-35
2021/04/19 07:02:46;;;;;;;1999.90;999.90;;;;;;;10.65;100.00;-17716.53;4937575;29;20206;-34
2021/04/19 07:05:40;;;;;;;1999.90;999.90;;;;;;;10.71;100.00;-12313.22;4938043;29;20667;-30
2021/04/19 07:08:33;;;;;;;1999.90;999.90;;;;;;;11.68;100.00;-12604.06;4937809;29;20214;-32
2021/04/19 07:11:22;;;;;;;1999.90;999.90;;;;;;;11.75;100.00;-18221.78;4938189;29;20229;-32
2021/04/19 07:14:09;;;;;;;1999.90;999.90;;;;;;;11.68;100.00;-18219.91;4939919;29;20209;-36
2021/04/19 07:16:59;;;;;;;1999.90;999.90;;;;;;;11.17;100.00;-18206.41;4941081;29;20204;-33
2021/04/19 07:19:46;;;;;;;1999.90;999.90;;;;;;;11.94;100.00;-18226.72;4941808;29;20344;-31
2021/04/19 07:22:33;;;;;;;1999.90;999.90;;;;;;;11.82;100.00;-18223.53;4941320;29;20207;-32
2021/04/19 07:25:19;;;;;;;1999.90;999.90;;;;;;;11.10;100.00;-18204.53;4941202;29;20223;-33
2021/04/19 07:28:06;;;;;;;1999.90;999.90;;;;;;;11.47;100.00;-18214.31;4941345;29;20203;-30
2021/04/19 07:31:00;;;;;;;1999.90;999.90;;;;;;;12.30;100.00;-18236.22;4941447;29;20327;-33
2021/04/19 07:33:47;;;;;;;1999.90;999.90;;;;;;;12.46;100.00;-18240.47;4941265;29;20226;-36
2021/04/19 07:36:35;;;;;;;1999.90;999.90;;;;;;;12.93;100.00;-18252.75;4953293;29;20494;-35
2021/04/19 07:39:27;;;;;;;1999.90;999.90;;;;;;;11.74;100.00;-18221.50;4960862;29;20219;-33
2021/04/19 07:42:17;;;;;;;1999.90;999.90;;;;;;;12.62;100.00;-18244.75;4960044;29;20247;-33
2021/04/19 07:45:04;;;;;;;1999.90;999.90;;;;;;;12.93;100.00;-18252.75;4960741;29;20713;-31
2021/04/19 07:47:50;;;;;;;1999.90;999.90;;;;;;;11.85;100.00;-18224.31;4960414;29;20479;-31
2021/04/19 07:50:40;;;;;;;1999.90;999.90;;;;;;;11.25;100.00;-18208.56;4959841;29;20398;-30
2021/04/19 07:53:26;;;;;;;1999.90;999.90;;;;;;;11.93;100.00;-18226.59;4960185;29;20609;-31
2021/04/19 07:56:18;;;;;;;1999.90;999.90;;;;;;;11.38;100.00;-18212.03;4960071;29;20200;-31
2021/04/19 07:59:22;;;;;;;1999.90;999.90;;;;;;;12.21;100.00;-18233.94;4960153;29;20302;-31
2021/04/19 08:02:13;;;;;;;1999.90;999.90;;;;;;;11.62;100.00;-18218.31;4959499;29;20255;-31
2021/04/19 08:05:05;;;;;;;1999.90;999.90;;;;;;;12.03;100.00;-18229.25;4960123;29;20200;-36
2021/04/19 08:07:56;;;;;;;1999.90;999.90;;;;;;;12.24;100.00;-18234.75;4959638;29;20603;-33
2021/04/19 08:10:43;;;;;;;1999.90;999.90;;;;;;;11.82;100.00;-18223.53;4959644;29;20267;-34
2021/04/19 08:13:32;;;;;;;1999.90;999.90;;;;;;;11.68;100.00;-18220.03;4959529;29;20215;-34
2021/04/19 08:16:21;;;;;;;1999.90;999.90;;;;;;;11.82;100.00;-18223.66;4959098;29;20204;-35
2021/04/19 08:19:10;;;;;;;1999.90;999.90;;;;;;;12.42;100.00;-18239.53;4959526;29;20488;-34
2021/04/19 08:22:12;;;;;;;1999.90;999.90;;;;;;;12.72;100.00;-18247.28;4958837;29;20206;-32
2021/04/19 08:25:14;;;;;;;1999.90;999.90;;;;;;;13.55;100.00;-18269.03;4958813;28;20221;-36
2021/04/19 08:28:04;;;;;;;1999.90;999.90;;;;;;;12.89;100.00;-18251.69;4959029;29;20371;-36
2021/04/19 08:30:55;;;;;;;1999.90;999.90;;;;;;;13.67;100.00;-18272.38;4959074;29;20590;-32
2021/04/19 08:33:48;;;;;;;1999.90;999.90;;;;;;;14.78;100.00;-18301.56;4958883;29;20232;-35
2021/04/19 08:36:39;;;;;;;1999.90;999.90;;;;;;;13.99;100.00;-18280.78;4958631;29;20622;-33
2021/04/19 08:39:25;;;;;;;1999.90;999.90;;;;;;;12.43;100.00;-18239.69;4958782;29;20377;-35
2021/04/19 08:42:28;;;;;;;1999.90;999.90;;;;;;;13.18;100.00;-18259.44;4959167;29;20204;-31
2021/04/19 08:45:15;;;;;;;1999.90;999.90;;;;;;;13.63;100.00;-18271.16;4958867;29;20205;-34
2021/04/19 08:48:09;;;;;;;1999.90;999.90;;;;;;;13.33;100.00;-18263.31;4959018;29;20290;-31
2021/04/19 08:50:56;;;;;;;1999.90;999.90;;;;;;;14.04;100.00;-18282.09;4958750;29;20224;-34
2021/04/19 08:53:44;;;;;;;1999.90;999.90;;;;;;;14.07;100.00;-18282.91;4958219;29;20199;-32
2021/04/19 08:56:36;;;;;;;1999.90;999.90;;;;;;;14.40;100.00;-18291.44;4958553;29;20219;-36
2021/04/19 08:59:24;;;;;;;1999.90;999.90;;;;;;;13.72;100.00;-18273.72;4958636;29;20215;-34
2021/04/19 09:02:11;;;;;;;1999.90;999.90;;;;;;;13.65;100.00;-18271.69;4957995;29;20204;-33
2021/04/19 09:05:19;;;;;;;1999.90;999.90;;;;;;;12.48;100.00;-18240.88;4958448;29;20291;-31
2021/04/19 09:08:07;;;;;;;1999.90;999.90;;;;;;;13.24;100.00;-18260.91;4956855;29;20208;-34
2021/04/19 09:10:57;;;;;;;1999.90;999.90;;;;;;;13.56;100.00;-18269.31;4958971;29;20226;-33
2021/04/19 09:13:43;;;;;;;1999.90;999.90;;;;;;;13.67;100.00;-18272.25;4958302;29;20220;-34
2021/04/19 09:16:36;;;;;;;1999.90;999.90;;;;;;;14.89;100.00;-18304.22;4958700;29;20204;-32
2021/04/19 09:19:26;;;;;;;1999.90;999.90;;;;;;;14.53;100.00;-18294.78;4958170;29;20203;-33
2021/04/19 09:22:13;;;;;;;1999.90;999.90;;;;;;;15.33;100.00;-18315.94;4958203;29;20309;-32
2021/04/19 09:25:05;;;;;;;1999.90;999.90;;;;;;;14.90;100.00;-18304.50;4958082;29;20594;-32
2021/04/19 09:27:56;;;;;;;1999.90;999.90;;;;;;;14.13;100.00;-18284.50;4957810;29;20223;-32
2021/04/19 09:30:47;;;;;;;1999.90;999.90;;;;;;;14.87;100.00;-18303.81;4957927;29;20208;-37
2021/04/19 09:33:33;;;;;;;1999.90;999.90;;;;;;;13.86;100.00;-18277.31;4958080;29;20212;-36
2021/04/19 09:36:50;;;;;;;1999.90;999.90;;;;;;;12.70;100.00;-18246.88;4957497;28;20596;-31
2021/04/19 09:39:53;;;;;;;1999.90;999.90;;;;;;;13.12;100.00;-18257.81;4957901;29;20204;-32
2021/04/19 09:43:05;;;;;;;1999.90;999.90;;;;;;;12.66;100.00;-18245.81;4957949;29;20208;-32
2021/04/19 09:46:00;;;;;;;1999.90;999.90;;;;;;;12.10;100.00;-18230.88;4957845;29;20515;-33
2021/04/19 09:49:00;;;;;;;1999.90;999.90;;;;;;;12.02;100.00;-18228.88;4957436;29;20207;-32
2021/04/19 09:51:47;;;;;;;1999.90;999.90;;;;;;;11.65;100.00;-18219.09;4958062;29;20244;-31
2021/04/19 09:54:33;;;;;;;1999.90;999.90;;;;;;;11.82;100.00;-18223.53;4958257;29;20203;-33
2021/04/19 09:57:19;;;;;;;1999.90;999.90;;;;;;;12.05;100.00;-18229.78;4958013;29;20395;-35
2021/04/19 10:00:07;;;;;;;1999.90;999.90;;;;;;;12.24;100.00;-18234.75;4957986;29;20203;-34
2021/04/19 10:02:53;;;;;;;1999.90;999.90;;;;;;;11.92;100.00;-18226.31;4956533;29;20203;-34
2021/04/19 10:05:43;;;;;;;1999.90;999.90;;;;;;;11.75;100.00;-18221.78;4956307;29;20282;-34
2021/04/19 10:08:31;;;;;;;1999.90;999.90;;;;;;;11.79;100.00;-18222.84;4957529;29;20354;-31
2021/04/19 10:11:23;;;;;;;1999.90;999.90;;;;;;;11.84;100.00;-18224.19;4957427;29;20207;-37
2021/04/19 10:14:14;;;;;;;1999.90;999.90;;;;;;;12.52;100.00;-18242.09;4957217;29;20199;-34
2021/04/19 10:17:13;;;;;;;1999.90;999.90;;;;;;;12.62;100.00;-18244.63;4957096;29;20699;-34
2021/04/19 10:20:19;;;;;;;1999.90;999.90;;;;;;;12.42;100.00;-18239.41;4957380;29;20262;-35
2021/04/19 10:23:06;;;;;;;1999.90;999.90;;;;;;;12.42;100.00;-18239.53;4957463;29;20227;-31
2021/04/19 10:25:52;;;;;;;1999.90;999.90;;;;;;;12.86;100.00;-18250.88;4957525;29;20208;-35
2021/04/19 10:28:41;;;;;;;1999.90;999.90;;;;;;;13.55;100.00;-18269.03;4956223;29;20196;-34
2021/04/19 10:31:28;;;;;;;1999.90;999.90;;;;;;;12.80;100.00;-18249.41;4957218;29;20286;-35
2021/04/19 10:34:18;;;;;;;1999.90;999.90;;;;;;;13.09;100.00;-18257.03;4957938;29;20782;-35
2021/04/19 10:37:06;;;;;;;1999.90;999.90;;;;;;;13.18;100.00;-18259.31;4957585;29;20208;-33
2021/04/19 10:39:57;;;;;;;1999.90;999.90;;;;;;;13.34;100.00;-18263.69;4957413;29;20200;-34
2021/04/19 10:42:43;;;;;;;1999.90;999.90;;;;;;;14.27;100.00;-18287.97;4954615;29;20236;-32
2021/04/19 10:45:32;;;;;;;1999.90;999.90;;;;;;;13.28;100.00;-18261.97;4957030;29;20666;-33
2021/04/19 10:48:21;;;;;;;1999.90;999.90;;;;;;;13.42;100.00;-18265.84;4956931;28;20228;-32
2021/04/19 10:51:17;;;;;;;1999.90;999.90;;;;;;;13.97;100.00;-18280.25;4959883;29;20203;-37
2021/04/19 10:54:08;;;;;;;1999.90;999.90;;;;;;;14.34;100.00;-18289.84;4959834;29;20632;-33
2021/04/19 10:56:56;;;;;;;1999.90;999.90;;;;;;;17.20;100.00;-18365.03;4960568;29;20239;-33
2021/04/19 10:59:43;;;;;;;1999.90;999.90;;;;;;;17.61;97.17;-18375.69;4958033;29;20214;-33
2021/04/19 11:02:30;;;;;;;1999.90;999.90;;;;;;;16.35;100.00;-18342.56;4950731;29;20218;-35
2021/04/19 11:05:17;;;;;;;1999.90;999.90;;;;;;;16.13;100.00;-18336.97;4961486;29;20204;-36
2021/04/19 11:08:03;;;;;;;1999.90;999.90;;;;;;;14.96;100.00;-18306.09;4953931;29;20682;-34
2021/04/19 11:10:48;;;;;;;1999.90;999.90;;;;;;;14.51;100.00;-18294.38;4960687;29;20325;-32
2021/04/19 11:13:37;;;;;;;1999.90;999.90;;;;;;;14.62;100.00;-18297.16;4960718;29;20213;-31
2021/04/19 11:16:26;;;;;;;1999.90;999.90;;;;;;;15.52;100.00;-18321.00;4960271;29;20350;-35
2021/04/19 11:19:28;;;;;;;1999.90;999.90;;;;;;;14.78;100.00;-18301.56;4955408;29;20205;-34
2021/04/19 11:22:23;;;;;;;1999.90;999.90;;;;;;;15.35;100.00;-18316.34;4960828;29;20207;-35
2021/04/19 11:25:34;;;;;;;1999.90;999.90;;;;;;;15.73;100.00;-18326.34;4947599;29;20208;-34
2021/04/19 11:28:22;;;;;;;1999.90;999.90;;;;;;;14.38;100.00;-18291.03;4944884;29;20293;-31
2021/04/19 11:31:15;;;;;;;1999.90;999.90;;;;;;;14.68;100.00;-18298.91;4948436;29;20208;-32
2021/04/19 11:34:12;;;;;;;1999.90;999.90;;;;;;;16.15;100.00;-18337.50;4947845;29;20209;-32
2021/04/19 11:37:36;;;;;;;1999.90;999.90;;;;;;;16.27;99.08;-18340.44;4960185;29;20212;-31
2021/04/19 11:40:30;;;;;;;1999.90;999.90;;;;;;;15.40;95.18;-18317.81;4952803;29;20359;-31
2021/04/19 11:43:21;;;;;;;1999.90;999.90;;;;;;;15.71;95.06;-18325.81;4952281;29;20211;-34
2021/04/19 11:46:09;;;;;;;1999.90;999.90;;;;;;;17.72;84.34;-18378.47;4940944;29;20339;-33
2021/04/19 11:48:57;;;;;;;1999.90;999.90;;;;;;;15.88;86.51;-18330.31;4955172;29;20205;-35
2021/04/19 11:51:43;;;;;;;1999.90;999.90;;;;;;;17.22;86.13;-18365.44;4958767;29;20236;-37
2021/04/19 11:54:31;;;;;;;1999.90;999.90;;;;;;;15.74;87.51;-18326.59;4953582;29;20308;-35
2021/04/19 11:57:23;;;;;;;1999.90;999.90;;;;;;;15.96;98.02;-18332.47;4948416;29;20905;-32
2021/04/19 12:00:12;;;;;;;1999.90;999.90;;;;;;;17.66;79.40;-18376.88;4959967;28;20310;-32
2021/04/19 12:03:00;;;;;;;1999.90;999.90;;;;;;;17.83;87.53;-18381.41;4941893;29;20209;-35
2021/04/19 12:05:54;;;;;;;1999.90;999.90;;;;;;;15.86;96.76;-18329.78;4941361;29;20212;-33
2021/04/19 12:08:42;;;;;;;1999.90;999.90;;;;;;;15.76;100.00;-18327.28;4959929;29;20292;-31
2021/04/19 12:11:30;;;;;;;1999.90;999.90;;;;;;;16.12;100.00;-18336.72;4958005;29;20207;-34
2021/04/19 12:14:19;;;;;;;1999.90;999.90;;;;;;;16.44;100.00;-18344.97;4951236;29;20205;-36
2021/04/19 12:17:05;;;;;;;1999.90;999.90;;;;;;;15.43;99.73;-18318.59;4959458;29;20352;-35
2021/04/19 12:19:51;;;;;;;1999.90;999.90;;;;;;;15.02;100.00;-18307.81;4958552;29;20630;-38
2021/04/19 12:22:39;;;;;;;1999.90;999.90;;;;;;;15.24;100.00;-18313.56;4959470;29;20351;-31